Time;durP1;ratioP1;P1;durP2;ratioP2;P2;SDS_P1;SDS_P2;PMS_P1;PMS_P2;Temp;Humidity;BMP_temperature;BMP_pressure;BME280_temperature;BME280_humidity;BME280_pressure;Samples;Min_cycle;Max_cycle;Signal;HPM_P1;HPM_P2
2021/04/29 00:02:20;;;;;;;99.83;33.98;;;;;;;0.05;84.88;101272.73;1719753;82;21151;-40
2021/04/29 00:04:48;;;;;;;96.87;34.80;;;;;;;0.04;84.85;101271.88;1719625;83;21015;-40
2021/04/29 00:07:15;;;;;;;98.85;36.42;;;;;;;0.04;85.01;101273.55;1719847;82;20951;-40
2021/04/29 00:09:43;;;;;;;139.70;47.33;;;;;;;0.02;85.06;101270.08;1719770;83;20903;-40
2021/04/29 00:12:11;;;;;;;152.47;49.80;;;;;;;-0.03;85.08;101272.05;1719770;82;21046;-40
2021/04/29 00:14:39;;;;;;;192.25;58.78;;;;;;;-0.06;85.10;101274.48;1719712;83;21430;-40
2021/04/29 00:17:07;;;;;;;160.10;50.80;;;;;;;-0.09;85.22;101276.03;1719680;83;20991;-40
2021/04/29 00:19:35;;;;;;;195.40;58.15;;;;;;;-0.13;85.32;101263.58;1719791;82;20985;-40
2021/04/29 00:22:02;;;;;;;144.90;43.60;;;;;;;-0.19;85.39;101264.63;1719650;83;21094;-40
2021/04/29 00:24:31;;;;;;;103.83;36.90;;;;;;;-0.22;85.54;101263.23;1719664;83;20999;-40
2021/04/29 00:26:59;;;;;;;95.17;32.30;;;;;;;-0.28;85.59;101262.58;1719743;83;21209;-40
2021/04/29 00:29:26;;;;;;;104.65;37.20;;;;;;;-0.31;85.74;101271.37;1719706;83;21050;-40
2021/04/29 00:31:54;;;;;;;90.97;34.63;;;;;;;-0.32;86.00;101276.88;1719791;83;21054;-40
2021/04/29 00:34:22;;;;;;;69.80;26.27;;;;;;;-0.33;86.21;101275.53;1719674;83;21078;-40
2021/04/29 00:36:50;;;;;;;66.33;22.55;;;;;;;-0.34;86.60;101273.41;1719743;83;21010;-40
2021/04/29 00:39:19;;;;;;;59.67;21.07;;;;;;;-0.32;86.62;101273.06;1719750;83;22127;-40
2021/04/29 00:41:46;;;;;;;55.40;22.00;;;;;;;-0.33;86.58;101277.69;1719661;83;21010;-40
2021/04/29 00:44:14;;;;;;;50.55;19.60;;;;;;;-0.35;86.73;101278.04;1719748;83;20935;-40
2021/04/29 00:46:42;;;;;;;53.55;19.75;;;;;;;-0.35;86.86;101279.31;1719705;83;21014;-40
2021/04/29 00:49:10;;;;;;;42.25;15.85;;;;;;;-0.35;87.12;101277.16;1719714;83;21003;-40
2021/04/29 00:51:37;;;;;;;49.23;19.05;;;;;;;-0.31;87.24;101281.55;1719763;82;21366;-40
2021/04/29 00:54:05;;;;;;;50.48;19.95;;;;;;;-0.29;87.41;101278.66;1715777;83;21110;-40
2021/04/29 00:56:33;;;;;;;58.52;20.57;;;;;;;-0.26;87.60;101285.14;1706176;84;20987;-40
2021/04/29 00:59:03;;;;;;;46.08;18.57;;;;;;;-0.20;87.93;101289.61;1706150;84;20947;-40
2021/04/29 01:01:32;;;;;;;36.73;16.00;;;;;;;-0.13;88.20;101286.48;1706184;84;20936;-40
2021/04/29 01:04:07;;;;;;;39.05;16.87;;;;;;;-0.05;88.38;101282.97;1706161;82;21386;-40
2021/04/29 01:06:42;;;;;;;38.38;15.78;;;;;;;-0.03;88.42;101283.50;1706259;84;21004;-40
2021/04/29 01:09:17;;;;;;;40.75;15.58;;;;;;;0.02;88.31;101280.27;1706159;83;20928;-40
2021/04/29 01:11:50;;;;;;;45.05;17.87;;;;;;;0.04;88.13;101279.52;1706072;84;20987;-40
2021/04/29 01:14:18;;;;;;;52.05;19.92;;;;;;;0.04;88.12;101279.91;1706154;84;20943;-40
2021/04/29 01:16:46;;;;;;;49.48;21.33;;;;;;;0.02;87.98;101281.14;1706180;84;21384;-40
2021/04/29 01:19:14;;;;;;;60.95;24.55;;;;;;;-0.04;87.77;101283.05;1706116;84;20999;-40
2021/04/29 01:21:41;;;;;;;71.97;23.55;;;;;;;-0.11;87.62;101284.02;1706204;84;20944;-40
2021/04/29 01:24:17;;;;;;;80.53;32.10;;;;;;;-0.20;87.62;101281.97;1706207;84;20971;-40
2021/04/29 01:26:55;;;;;;;93.80;39.85;;;;;;;-0.26;87.69;101282.59;1706434;84;21482;-40
2021/04/29 01:29:29;;;;;;;60.12;23.02;;;;;;;-0.33;87.66;101276.81;1706032;83;21899;-40
2021/04/29 01:31:58;;;;;;;51.13;21.23;;;;;;;-0.39;87.74;101281.24;1706134;84;21632;-40
2021/04/29 01:34:30;;;;;;;54.03;20.72;;;;;;;-0.47;87.84;101283.51;1706170;84;21088;-40
2021/04/29 01:36:57;;;;;;;50.55;18.85;;;;;;;-0.55;87.96;101278.49;1706265;83;21540;-40
2021/04/29 01:39:26;;;;;;;66.35;21.77;;;;;;;-0.59;88.05;101280.06;1706157;84;21019;-40
2021/04/29 01:41:53;;;;;;;46.20;18.37;;;;;;;-0.64;88.09;101285.34;1686422;84;21372;-40
2021/04/29 01:44:23;;;;;;;49.20;19.98;;;;;;;-0.69;88.08;101289.38;1706116;84;20971;-39
2021/04/29 01:46:54;;;;;;;49.40;19.12;;;;;;;-0.75;88.27;101290.41;1706213;84;21350;-40
2021/04/29 01:49:21;;;;;;;57.23;18.00;;;;;;;-0.80;88.32;101282.58;1686284;84;21126;-40
2021/04/29 01:51:49;;;;;;;52.93;17.67;;;;;;;-0.84;88.40;101283.27;1706210;84;20968;-40
2021/04/29 01:54:17;;;;;;;46.28;16.55;;;;;;;-0.86;88.51;101291.23;1667747;83;21385;-40
2021/04/29 01:56:46;;;;;;;56.45;18.02;;;;;;;-0.92;88.61;101289.70;1727095;83;21045;-40
2021/04/29 01:59:14;;;;;;;47.33;17.17;;;;;;;-0.94;88.69;101288.36;1727246;83;20990;-40
2021/04/29 02:01:42;;;;;;;39.83;15.80;;;;;;;-0.96;88.70;101284.03;1727124;83;20986;-40
2021/04/29 02:04:11;;;;;;;63.33;15.93;;;;;;;-1.00;88.76;101281.75;1727222;81;21571;-40
2021/04/29 02:06:43;;;;;;;46.20;14.83;;;;;;;-1.04;88.83;101279.89;1727118;83;21372;-40
2021/04/29 02:10:17;;;;;;;40.50;13.72;;;;;;;-1.05;88.95;101281.97;1777009;79;22256;-40
2021/04/29 02:12:53;;;;;;;44.45;14.00;;;;;;;-1.13;89.01;101289.26;1749479;82;21481;-40
2021/04/29 02:15:26;;;;;;;38.35;13.30;;;;;;;-1.16;89.18;101289.98;1749166;81;21429;-40
2021/04/29 02:18:11;;;;;;;35.68;12.75;;;;;;;-1.17;89.27;101284.85;1749449;82;20928;-40
2021/04/29 02:20:41;;;;;;;29.87;11.05;;;;;;;-1.16;89.37;101287.44;1749417;82;21047;-40
2021/04/29 02:23:12;;;;;;;30.85;10.65;;;;;;;-1.14;89.50;101291.33;1749447;82;21018;-40
2021/04/29 02:25:42;;;;;;;33.05;10.88;;;;;;;-1.13;89.61;101289.26;1749337;81;20998;-40
2021/04/29 02:28:09;;;;;;;44.55;12.23;;;;;;;-1.09;89.71;101296.20;1749428;82;21376;-40
2021/04/29 02:30:37;;;;;;;49.00;10.48;;;;;;;-1.09;89.64;101297.48;1749401;81;20955;-40
2021/04/29 02:33:07;;;;;;;31.65;10.82;;;;;;;-1.10;89.65;101299.97;1749506;82;20979;-40
2021/04/29 02:35:34;;;;;;;39.75;12.13;;;;;;;-1.11;89.75;101300.36;1749370;82;21015;-40
2021/04/29 02:38:03;;;;;;;41.48;11.10;;;;;;;-1.10;89.83;101299.97;1749455;82;21003;-40
2021/04/29 02:40:31;;;;;;;42.50;11.12;;;;;;;-1.08;89.87;101294.55;1749399;82;21205;-40
2021/04/29 02:43:00;;;;;;;36.88;10.58;;;;;;;-1.07;89.98;101298.83;1748504;82;21038;-40
2021/04/29 02:45:28;;;;;;;35.50;11.03;;;;;;;-1.04;90.20;101302.77;1749427;81;21058;-40
2021/04/29 02:47:56;;;;;;;39.80;10.82;;;;;;;-0.98;90.23;101300.89;1749380;82;20975;-40
2021/04/29 02:50:25;;;;;;;28.42;10.85;;;;;;;-0.92;90.17;101300.73;1749490;82;20943;-40
2021/04/29 02:52:53;;;;;;;86.30;39.00;;;;;;;-0.85;90.16;101307.37;1749481;82;21223;-40
2021/04/29 02:55:22;;;;;;;139.52;57.17;;;;;;;-0.80;90.26;101307.16;1749351;82;20948;-40
2021/04/29 02:57:50;;;;;;;338.23;168.43;;;;;;;-0.73;90.38;101302.78;1749525;82;21636;-40
2021/04/29 03:00:19;;;;;;;397.37;215.20;;;;;;;-0.66;90.50;101301.36;1749279;82;21113;-40
2021/04/29 03:02:46;;;;;;;107.78;54.00;;;;;;;-0.60;90.61;101302.49;1739391;82;21026;-40
2021/04/29 03:05:14;;;;;;;51.73;18.37;;;;;;;-0.50;90.81;101298.66;1719567;83;21379;-40
2021/04/29 03:07:42;;;;;;;42.90;12.63;;;;;;;-0.40;90.86;101301.55;1719559;83;20971;-40
2021/04/29 03:10:11;;;;;;;52.38;16.37;;;;;;;-0.32;90.77;101297.24;1708726;83;21185;-40
2021/04/29 03:12:40;;;;;;;30.12;12.75;;;;;;;-0.23;90.84;101304.77;1706781;84;20992;-41
2021/04/29 03:15:09;;;;;;;38.13;13.65;;;;;;;-0.15;90.86;101304.66;1706872;83;20947;-40
2021/04/29 03:17:37;;;;;;;42.93;12.00;;;;;;;-0.06;90.96;101308.84;1706740;83;21170;-41
2021/04/29 03:20:08;;;;;;;40.17;10.72;;;;;;;0.04;90.97;101305.38;1705431;82;21512;-40
2021/04/29 03:22:36;;;;;;;30.97;11.55;;;;;;;0.17;91.07;101307.98;1706293;84;21019;-40
2021/04/29 03:25:05;;;;;;;37.93;10.20;;;;;;;0.29;91.12;101304.64;1706202;84;20976;-40
2021/04/29 03:27:32;;;;;;;39.80;10.00;;;;;;;0.47;91.28;101303.17;1706305;83;21513;-40
2021/04/29 03:30:00;;;;;;;36.25;10.35;;;;;;;0.68;91.31;101306.05;1706317;83;21375;-40
2021/04/29 03:32:27;;;;;;;41.80;10.18;;;;;;;0.90;91.42;101302.98;1706180;84;20975;-40
2021/04/29 03:34:55;;;;;;;41.42;11.63;;;;;;;1.14;91.49;101310.20;1706276;84;21071;-40
2021/04/29 03:37:22;;;;;;;40.48;10.93;;;;;;;1.45;91.53;101305.23;1706249;84;21019;-40
2021/04/29 03:39:51;;;;;;;41.48;11.10;;;;;;;1.84;91.57;101303.90;1706274;84;21054;-40
2021/04/29 03:42:18;;;;;;;42.58;10.78;;;;;;;2.18;91.26;101305.34;1706306;83;21384;-40
2021/04/29 03:44:46;;;;;;;42.88;12.90;;;;;;;2.46;90.89;101303.19;1706240;84;21023;-41
2021/04/29 03:47:14;;;;;;;32.03;12.40;;;;;;;2.70;90.63;101303.42;1706330;84;20964;-40
2021/04/29 03:49:42;;;;;;;37.08;11.10;;;;;;;2.90;90.36;101305.23;1706244;84;21038;-40
2021/04/29 03:52:09;;;;;;;38.70;11.05;;;;;;;3.07;90.08;101302.27;1706259;84;21043;-40
2021/04/29 03:54:37;;;;;;;32.08;10.23;;;;;;;3.16;89.76;101300.81;1706270;84;21204;-40
2021/04/29 03:57:06;;;;;;;38.55;10.45;;;;;;;3.24;89.45;101298.42;1706109;83;20955;-40
2021/04/29 03:59:33;;;;;;;26.12;9.40;;;;;;;3.35;89.31;101297.42;1706227;83;21129;-41
2021/04/29 04:02:01;;;;;;;33.92;10.20;;;;;;;3.54;89.10;101296.20;1706283;82;21626;-40
2021/04/29 04:04:30;;;;;;;34.88;10.18;;;;;;;3.82;88.81;101294.68;1706320;82;20940;-40
2021/04/29 04:06:58;;;;;;;26.70;9.93;;;;;;;4.57;88.06;101300.98;1706313;83;21377;-40
2021/04/29 04:09:25;;;;;;;29.50;10.13;;;;;;;4.57;88.06;101300.98;1706230;83;21628;-40
2021/04/29 04:11:53;;;;;;;11.08;6.35;;;;;;;5.00;87.29;101300.92;1706273;84;21003;-40
2021/04/29 04:14:21;;;;;;;15.28;6.08;;;;;;;5.45;86.25;101297.42;1706241;84;20952;-40
2021/04/29 04:16:49;;;;;;;13.32;5.70;;;;;;;5.85;84.44;101298.45;1706231;83;21019;-41
2021/04/29 04:19:17;;;;;;;10.53;5.92;;;;;;;6.24;82.36;101295.16;1706250;84;21218;-40
2021/04/29 04:21:45;;;;;;;10.03;5.85;;;;;;;6.59;79.85;101297.29;1706191;84;21055;-40
2021/04/29 04:24:13;;;;;;;12.85;6.47;;;;;;;6.93;75.97;101294.63;1706205;84;20940;-40
2021/04/29 04:26:40;;;;;;;10.68;5.92;;;;;;;7.17;71.87;101291.00;1706278;84;21034;-40
2021/04/29 04:29:08;;;;;;;12.07;6.40;;;;;;;7.38;70.38;101289.47;1706237;84;20952;-40
2021/04/29 04:31:36;;;;;;;15.05;6.40;;;;;;;7.55;69.59;101289.59;1706178;83;21238;-40
2021/04/29 04:34:03;;;;;;;22.02;6.53;;;;;;;7.70;68.31;101292.70;1706143;84;21078;-40
2021/04/29 04:36:31;;;;;;;15.72;6.05;;;;;;;7.73;67.57;101291.47;1706219;84;21082;-40
2021/04/29 04:39:01;;;;;;;23.12;6.53;;;;;;;7.75;66.92;101288.47;1706219;82;21022;-40
2021/04/29 04:41:29;;;;;;;17.57;6.10;;;;;;;7.82;66.30;101298.81;1706231;84;21054;-40
2021/04/29 04:43:57;;;;;;;12.03;5.95;;;;;;;7.93;63.36;101295.02;1706244;84;21200;-40
2021/04/29 04:46:25;;;;;;;14.70;5.97;;;;;;;8.02;62.73;101293.36;1706081;84;20976;-40
2021/04/29 04:48:52;;;;;;;14.18;5.85;;;;;;;8.22;61.83;101293.02;1706204;84;21031;-40
2021/04/29 04:51:20;;;;;;;17.75;6.47;;;;;;;8.43;61.92;101290.95;1706153;84;20983;-40
2021/04/29 04:53:49;;;;;;;11.18;5.53;;;;;;;8.70;61.91;101288.05;1706226;84;21030;-40
2021/04/29 04:56:16;;;;;;;13.22;6.85;;;;;;;9.02;60.70;101289.86;1706224;84;21384;-40
2021/04/29 04:58:44;;;;;;;15.43;6.20;;;;;;;9.34;59.50;101285.98;1706275;84;20979;-40
2021/04/29 05:01:12;;;;;;;8.85;5.70;;;;;;;9.63;58.15;101286.42;1706165;82;21050;-40
2021/04/29 05:03:39;;;;;;;11.85;6.10;;;;;;;9.94;57.48;101288.52;1706151;82;21058;-40
2021/04/29 05:06:07;;;;;;;18.87;5.15;;;;;;;10.33;57.22;101284.94;1706263;84;21012;-40
2021/04/29 05:08:35;;;;;;;17.07;5.62;;;;;;;10.78;56.09;101286.02;1706202;84;21387;-41
2021/04/29 05:11:02;;;;;;;19.77;4.28;;;;;;;11.20;55.02;101292.66;1718569;83;21030;-40
2021/04/29 05:13:30;;;;;;;15.93;4.53;;;;;;;11.61;53.14;101286.70;1719758;83;21041;-41
2021/04/29 05:15:57;;;;;;;22.85;5.58;;;;;;;12.00;52.38;101285.88;1719616;83;21050;-41
2021/04/29 05:18:26;;;;;;;24.45;5.90;;;;;;;12.40;51.74;101289.77;1719694;83;20967;-40
2021/04/29 05:20:54;;;;;;;16.40;6.47;;;;;;;12.67;50.58;101285.08;1719770;83;21372;-40
2021/04/29 05:23:21;;;;;;;15.93;6.40;;;;;;;12.84;49.47;101290.45;1719632;83;21046;-40
2021/04/29 05:25:49;;;;;;;16.93;6.03;;;;;;;12.75;48.05;101291.02;1719725;82;21026;-40
2021/04/29 05:28:16;;;;;;;20.50;5.60;;;;;;;12.57;47.94;101292.56;1719656;83;21066;-40
2021/04/29 05:30:44;;;;;;;16.95;4.92;;;;;;;12.39;48.74;101298.43;1719823;83;20951;-41
2021/04/29 05:33:12;;;;;;;10.82;4.80;;;;;;;12.28;49.04;101304.17;1719710;83;21615;-40
2021/04/29 05:35:39;;;;;;;13.70;5.35;;;;;;;12.20;48.92;101305.56;1719757;82;21038;-40
2021/04/29 05:38:07;;;;;;;12.70;4.87;;;;;;;12.15;48.59;101308.66;1719700;83;20978;-40
2021/04/29 05:40:34;;;;;;;14.33;6.08;;;;;;;12.08;48.32;101301.37;1719649;83;21046;-40
2021/04/29 05:43:02;;;;;;;9.40;5.08;;;;;;;12.03;48.44;101309.22;1719767;83;20951;-40
2021/04/29 05:45:30;;;;;;;9.20;5.42;;;;;;;11.98;48.33;101307.52;1719707;83;21410;-40
2021/04/29 05:47:58;;;;;;;10.68;6.28;;;;;;;11.98;48.54;101301.03;1719733;83;20979;-40
2021/04/29 05:50:25;;;;;;;10.58;6.90;;;;;;;12.11;48.36;101301.33;1719698;83;21042;-40
2021/04/29 05:52:53;;;;;;;11.90;7.10;;;;;;;12.28;48.15;101299.86;1719734;83;20958;-40
2021/04/29 05:55:23;;;;;;;23.38;7.53;;;;;;;12.38;48.36;101297.14;1719719;83;20967;-41
2021/04/29 05:57:50;;;;;;;17.65;7.05;;;;;;;12.49;47.74;101296.12;1719739;83;21357;-40
2021/04/29 06:00:18;;;;;;;10.00;6.53;;;;;;;12.69;47.62;101299.33;1719704;83;21076;-40
2021/04/29 06:02:47;;;;;;;13.78;6.60;;;;;;;12.90;46.91;101302.08;1719598;82;20959;-41
2021/04/29 06:05:15;;;;;;;9.53;6.33;;;;;;;13.06;45.58;101298.80;1719698;83;21022;-41
2021/04/29 06:07:42;;;;;;;10.53;5.70;;;;;;;13.18;44.77;101306.39;1719683;83;21114;-40
2021/04/29 06:10:11;;;;;;;11.60;5.10;;;;;;;13.29;44.45;101305.39;1713987;83;21376;-40
2021/04/29 06:12:39;;;;;;;11.88;5.80;;;;;;;13.17;42.72;101307.28;1706109;82;20944;-41
2021/04/29 06:15:08;;;;;;;7.67;5.33;;;;;;;12.96;43.49;101306.30;1706228;84;21067;-41
2021/04/29 06:17:35;;;;;;;8.05;5.03;;;;;;;12.78;43.41;101309.61;1706171;84;20936;-41
2021/04/29 06:20:04;;;;;;;9.48;5.08;;;;;;;12.63;43.56;101312.82;1706232;83;21608;-41
2021/04/29 06:22:32;;;;;;;8.50;5.37;;;;;;;12.66;43.94;101305.44;1706116;83;21346;-41
2021/04/29 06:24:59;;;;;;;6.10;4.95;;;;;;;12.84;43.41;101308.22;1706064;84;20928;-41
2021/04/29 06:27:27;;;;;;;8.70;5.15;;;;;;;12.98;43.29;101304.54;1706215;84;20944;-41
2021/04/29 06:29:54;;;;;;;9.80;4.92;;;;;;;13.13;43.13;101306.91;1706149;84;21031;-41
2021/04/29 06:32:23;;;;;;;8.93;5.10;;;;;;;13.29;43.41;101301.48;1706149;84;21023;-41
2021/04/29 06:34:50;;;;;;;8.70;5.00;;;;;;;13.40;42.97;101302.16;1706120;84;21197;-41
2021/04/29 06:37:18;;;;;;;6.65;4.58;;;;;;;13.45;43.73;101304.26;1706109;84;21160;-41
2021/04/29 06:39:46;;;;;;;5.72;4.50;;;;;;;13.55;43.98;101310.16;1706215;84;21004;-41
2021/04/29 06:42:14;;;;;;;6.28;4.80;;;;;;;13.65;43.25;101303.94;1706074;82;21038;-41
2021/04/29 06:44:42;;;;;;;11.18;4.90;;;;;;;13.68;42.91;101306.91;1706224;84;21034;-41
2021/04/29 06:47:10;;;;;;;9.88;5.70;;;;;;;13.68;42.65;101304.30;1706172;84;21344;-41
2021/04/29 06:49:39;;;;;;;9.03;5.05;;;;;;;13.57;42.45;101308.85;1706076;84;20963;-41
2021/04/29 06:52:06;;;;;;;13.48;5.17;;;;;;;13.49;43.17;101303.31;1706160;84;21011;-41
2021/04/29 06:54:34;;;;;;;10.70;6.00;;;;;;;13.59;43.41;101303.17;1706142;84;20956;-41
2021/04/29 06:57:02;;;;;;;7.83;4.92;;;;;;;13.67;42.49;101297.38;1706408;84;21014;-41
2021/04/29 06:59:30;;;;;;;10.72;5.35;;;;;;;13.61;42.37;101298.80;1706359;84;22252;-41
2021/04/29 07:01:58;;;;;;;13.38;5.55;;;;;;;13.57;42.33;101301.05;1706305;84;21031;-41
2021/04/29 07:04:27;;;;;;;10.75;4.95;;;;;;;13.53;42.87;101310.63;1703239;84;20992;-41
2021/04/29 07:06:55;;;;;;;15.63;6.10;;;;;;;13.63;42.75;101303.53;1706188;84;21011;-41
2021/04/29 07:09:22;;;;;;;11.43;5.28;;;;;;;13.73;42.33;101298.56;1706254;84;21043;-41
2021/04/29 07:11:50;;;;;;;11.18;5.42;;;;;;;13.88;42.29;101313.50;1719320;83;21475;-41
2021/04/29 07:14:17;;;;;;;9.35;5.05;;;;;;;14.03;40.96;101309.31;1719755;83;20958;-41
2021/04/29 07:16:45;;;;;;;8.45;5.10;;;;;;;14.14;41.27;101312.14;1719776;83;21042;-41
2021/04/29 07:19:13;;;;;;;10.43;5.50;;;;;;;14.23;40.81;101306.73;1719744;83;20943;-41
2021/04/29 07:21:41;;;;;;;9.05;6.00;;;;;;;14.31;40.33;101311.36;1719844;82;20968;-41
2021/04/29 07:24:09;;;;;;;8.00;4.80;;;;;;;14.31;40.17;101300.95;1719801;83;21141;-41
2021/04/29 07:26:36;;;;;;;8.28;4.33;;;;;;;14.34;40.52;101302.61;1719755;83;20961;-41
2021/04/29 07:29:04;;;;;;;7.85;5.03;;;;;;;14.47;39.96;101307.99;1719751;83;21070;-41
2021/04/29 07:31:32;;;;;;;8.10;4.65;;;;;;;14.65;38.75;101310.64;1719797;83;20939;-41
2021/04/29 07:34:01;;;;;;;8.00;5.30;;;;;;;14.79;39.54;101313.44;1716618;83;21030;-41
2021/04/29 07:36:29;;;;;;;9.60;4.40;;;;;;;14.90;37.31;101287.09;1719776;83;21397;-41
2021/04/29 07:38:58;;;;;;;9.35;5.10;;;;;;;14.72;37.70;101299.67;1719792;83;21031;-41
2021/04/29 07:41:28;;;;;;;11.35;5.53;;;;;;;14.69;38.02;101297.11;1719767;83;20936;-41
2021/04/29 07:43:57;;;;;;;9.15;4.95;;;;;;;14.72;38.27;101301.41;1719801;83;21015;-41
2021/04/29 07:46:25;;;;;;;10.60;5.28;;;;;;;14.77;37.76;101300.86;1719862;83;21030;-41
2021/04/29 07:48:52;;;;;;;6.47;4.97;;;;;;;14.85;38.13;101297.65;1719886;83;22270;-41
2021/04/29 07:51:20;;;;;;;9.40;5.67;;;;;;;14.78;37.54;101299.53;1719721;83;21062;-41
2021/04/29 07:53:48;;;;;;;14.33;5.87;;;;;;;14.73;37.76;101301.81;1719874;83;21003;-41
2021/04/29 07:56:16;;;;;;;8.23;5.20;;;;;;;14.73;37.70;101296.61;1719773;83;20900;-41
2021/04/29 07:58:43;;;;;;;6.42;5.25;;;;;;;14.82;38.03;101285.13;1719780;83;20990;-41
2021/04/29 08:01:11;;;;;;;13.15;5.80;;;;;;;15.03;38.16;101291.14;1719729;83;21373;-41
2021/04/29 08:03:39;;;;;;;9.65;5.67;;;;;;;15.31;37.77;101285.71;1719667;82;20951;-41
2021/04/29 08:06:06;;;;;;;16.00;6.05;;;;;;;15.58;36.56;101284.13;1719808;83;21496;-41
2021/04/29 08:08:34;;;;;;;10.58;6.83;;;;;;;15.76;34.34;101288.45;1719742;82;21034;-41
2021/04/29 08:11:02;;;;;;;12.03;7.03;;;;;;;15.44;34.95;101273.21;1712840;83;21011;-41
2021/04/29 08:13:30;;;;;;;17.52;7.15;;;;;;;15.31;36.34;101277.89;1706220;84;21206;-41
2021/04/29 08:15:59;;;;;;;11.68;6.72;;;;;;;15.50;35.18;101279.11;1706138;84;20964;-41
2021/04/29 08:18:27;;;;;;;13.40;6.30;;;;;;;15.59;34.29;101274.09;1706289;84;21011;-41
2021/04/29 08:20:54;;;;;;;8.85;5.72;;;;;;;15.33;34.82;101278.70;1706220;83;20948;-41
2021/04/29 08:23:22;;;;;;;13.88;6.78;;;;;;;15.31;34.40;101273.97;1706256;84;21007;-41
2021/04/29 08:25:50;;;;;;;11.68;6.25;;;;;;;15.40;34.97;101263.30;1706208;84;22340;-41
2021/04/29 08:28:18;;;;;;;11.55;6.30;;;;;;;15.52;33.78;101271.25;1706193;84;20972;-42
2021/04/29 08:30:46;;;;;;;15.60;7.00;;;;;;;15.58;33.78;101263.72;1706181;83;21039;-42
2021/04/29 08:33:13;;;;;;;10.95;7.50;;;;;;;15.51;33.88;101248.66;1706175;84;21003;-42
2021/04/29 08:35:43;;;;;;;11.95;6.72;;;;;;;15.44;34.28;101257.09;1706196;83;21043;-42
2021/04/29 08:38:11;;;;;;;8.28;6.00;;;;;;;15.60;33.76;101255.40;1706252;83;21208;-42
2021/04/29 08:40:38;;;;;;;11.95;7.55;;;;;;;15.78;33.55;101258.79;1706135;82;21011;-43
2021/04/29 08:43:06;;;;;;;13.85;7.47;;;;;;;16.15;34.01;101250.86;1706073;84;21090;-42
2021/04/29 08:45:34;;;;;;;13.00;8.20;;;;;;;16.52;33.06;101241.47;1706108;84;21596;-41
2021/04/29 08:48:05;;;;;;;17.02;8.95;;;;;;;16.77;32.88;101237.21;1705657;83;20987;-41
2021/04/29 08:50:34;;;;;;;12.63;8.55;;;;;;;16.78;32.12;101237.62;1705938;84;21142;-41
2021/04/29 08:53:01;;;;;;;13.00;9.00;;;;;;;16.66;32.19;101241.03;1706082;82;21027;-41
2021/04/29 08:55:29;;;;;;;19.15;9.93;;;;;;;16.43;33.44;101236.54;1704167;84;21610;-41
2021/04/29 08:57:58;;;;;;;23.77;11.15;;;;;;;16.27;33.89;101246.56;1706108;83;20967;-41
2021/04/29 09:00:25;;;;;;;17.20;10.13;;;;;;;16.43;33.54;101246.98;1706186;82;20948;-42
2021/04/29 09:02:57;;;;;;;15.75;10.15;;;;;;;16.43;34.44;101245.69;1706187;82;21362;-42
2021/04/29 09:05:29;;;;;;;19.50;11.18;;;;;;;16.78;33.70;101242.84;1706116;84;21003;-42
2021/04/29 09:08:07;;;;;;;18.37;10.18;;;;;;;16.79;32.82;101234.97;1710130;83;21511;-42
2021/04/29 09:10:40;;;;;;;16.52;9.80;;;;;;;16.71;33.62;101240.91;1707717;83;20987;-42
2021/04/29 09:13:20;;;;;;;17.07;9.73;;;;;;;16.82;33.13;101234.02;1713731;83;20976;-41
2021/04/29 09:15:48;;;;;;;13.40;7.50;;;;;;;16.91;32.92;101232.84;1712139;83;22200;-42
2021/04/29 09:18:19;;;;;;;9.33;7.37;;;;;;;17.01;33.51;101229.07;1709122;83;21031;-42
2021/04/29 09:20:57;;;;;;;10.48;5.60;;;;;;;17.23;32.18;101226.58;1650854;87;21012;-42
2021/04/29 09:23:28;;;;;;;7.22;4.45;;;;;;;17.08;31.70;101231.03;1642855;86;21619;-42
2021/04/29 09:26:02;;;;;;;6.37;4.28;;;;;;;16.92;31.82;101218.42;1667722;85;21591;-41
2021/04/29 09:28:48;;;;;;;7.65;4.70;;;;;;;17.03;30.54;101218.10;1665962;86;21432;-42
2021/04/29 09:31:18;;;;;;;7.20;3.95;;;;;;;16.92;31.63;101225.40;1666130;86;21207;-42
2021/04/29 09:33:51;;;;;;;6.42;3.52;;;;;;;16.97;30.06;101222.20;1666035;86;21070;-42
2021/04/29 09:36:36;;;;;;;6.15;2.70;;;;;;;17.04;29.55;101214.58;1653633;86;21109;-42
2021/04/29 09:39:08;;;;;;;4.40;2.20;;;;;;;17.28;29.05;101210.73;1704874;83;20900;-42
2021/04/29 09:41:37;;;;;;;3.77;2.22;;;;;;;17.66;27.83;101211.59;1714049;83;21373;-42
2021/04/29 09:44:10;;;;;;;4.08;3.62;;;;;;;17.91;26.92;101204.98;1714037;83;21010;-42
2021/04/29 09:46:45;;;;;;;5.33;2.30;;;;;;;17.96;27.29;101211.36;1713386;83;21743;-42
2021/04/29 09:49:35;;;;;;;6.45;4.55;;;;;;;18.00;25.83;101210.33;1714189;83;21082;-42
2021/04/29 09:52:23;;;;;;;20.30;9.65;;;;;;;17.95;26.06;101205.73;1714019;82;21560;-42
2021/04/29 09:54:54;;;;;;;4.95;2.90;;;;;;;18.15;26.70;101207.61;1690754;83;22265;-42
2021/04/29 10:00:07;;;;;;;3.30;2.22;;;;;;;18.18;24.12;101191.77;1846850;76;23319;-42
2021/04/29 10:02:35;;;;;;;5.08;1.87;;;;;;;17.95;24.18;101195.25;1780493;80;21042;-41
2021/04/29 10:05:05;;;;;;;1.77;1.67;;;;;;;17.84;23.31;101196.96;1783918;80;21363;-41
2021/04/29 10:07:34;;;;;;;1.87;1.70;;;;;;;17.88;23.53;101195.93;1783891;80;20983;-42
2021/04/29 10:10:01;;;;;;;2.17;1.98;;;;;;;17.84;20.52;101191.72;1783928;80;20923;-41
2021/04/29 10:12:30;;;;;;;2.70;1.98;;;;;;;17.92;22.18;101188.35;1802963;79;20947;-41
2021/04/29 10:14:59;;;;;;;2.62;2.25;;;;;;;17.93;23.06;101190.05;1810783;78;20959;-41
2021/04/29 10:17:28;;;;;;;4.55;2.90;;;;;;;17.87;24.14;101182.44;1817765;79;21188;-41
2021/04/29 10:19:57;;;;;;;8.98;2.95;;;;;;;17.64;24.55;101185.92;1792042;78;21551;-42
2021/04/29 10:22:27;;;;;;;27.25;15.93;;;;;;;17.61;25.26;101187.35;1735294;82;21645;-41
2021/04/29 10:24:56;;;;;;;4.70;4.28;;;;;;;17.74;26.49;101176.81;1732779;82;21013;-41
2021/04/29 10:27:29;;;;;;;5.75;3.83;;;;;;;17.92;26.06;101171.80;1792960;79;21532;-41
2021/04/29 10:30:12;;;;;;;8.43;5.90;;;;;;;18.23;27.19;101168.02;1817771;79;21362;-41
2021/04/29 10:32:42;;;;;;;4.80;4.37;;;;;;;18.51;28.53;101161.67;1817712;79;20927;-42
2021/04/29 10:35:22;;;;;;;4.90;4.40;;;;;;;18.62;27.55;101155.55;1816338;79;20931;-42
2021/04/29 10:38:01;;;;;;;6.15;5.03;;;;;;;18.72;27.98;101150.78;1785852;79;21010;-42
2021/04/29 10:40:37;;;;;;;5.28;4.80;;;;;;;18.70;29.15;101150.44;1785500;80;20906;-42
2021/04/29 10:43:06;;;;;;;;;;;;;;;18.79;28.98;101140.86;1788008;80;21445;-42
2021/04/29 10:45:35;;;;;;;6.70;5.65;;;;;;;18.83;29.08;101137.66;1814499;79;20113;-42
2021/04/29 10:48:08;;;;;;;7.58;5.25;;;;;;;18.85;29.61;101136.70;1815173;78;20990;-42
2021/04/29 10:50:45;;;;;;;8.88;5.97;;;;;;;19.10;29.72;101123.39;1802483;78;21081;-41
2021/04/29 10:53:15;;;;;;;11.18;5.85;;;;;;;19.19;28.65;101123.45;1791417;79;21559;-42
2021/04/29 10:55:44;;;;;;;11.10;6.37;;;;;;;19.13;29.88;101119.79;1788029;79;21366;-42
2021/04/29 10:58:24;;;;;;;11.25;6.37;;;;;;;19.23;28.80;101122.86;1781863;79;21104;-42
2021/04/29 11:01:02;;;;;;;15.48;6.58;;;;;;;19.35;28.81;101115.73;1753501;81;20998;-42
2021/04/29 11:03:43;;;;;;;7.72;5.65;;;;;;;19.39;29.42;101107.28;1732481;82;21162;-43
2021/04/29 11:06:18;;;;;;;12.43;6.75;;;;;;;19.36;29.13;101104.31;1732618;82;20994;-41
2021/04/29 11:08:51;;;;;;;11.03;7.58;;;;;;;19.47;29.99;101103.83;1785651;79;21197;-42
2021/04/29 11:11:34;;;;;;;11.15;6.83;;;;;;;19.59;28.38;101098.48;1812028;79;20974;-42
2021/04/29 11:14:14;;;;;;;17.00;6.67;;;;;;;19.56;29.54;101089.44;1817156;78;21458;-42
2021/04/29 11:16:54;;;;;;;15.85;8.23;;;;;;;19.54;30.02;101092.59;1817143;79;20934;-42
2021/04/29 11:19:45;;;;;;;11.28;6.92;;;;;;;19.58;29.72;101090.66;1817127;78;21148;-42
2021/04/29 11:22:19;;;;;;;15.60;7.17;;;;;;;19.71;29.61;101083.92;1817176;77;21364;-42
2021/04/29 11:24:49;;;;;;;11.57;7.20;;;;;;;19.68;29.05;101080.14;1817089;79;21014;-42
2021/04/29 11:27:28;;;;;;;15.85;8.00;;;;;;;19.65;30.37;101077.66;1814861;79;21037;-42
2021/04/29 11:30:06;;;;;;;13.62;7.03;;;;;;;19.73;28.91;101081.24;1810456;79;21022;-43
2021/04/29 11:32:36;;;;;;;12.40;7.65;;;;;;;19.72;29.82;101075.60;1767059;79;20899;-42